createdAt,value
2017-12-10T00:00:06.543Z,48.86
2017-12-10T00:01:06.535Z,49.15
2017-12-10T00:02:06.529Z,48.95
2017-12-10T00:03:06.520Z,49.05
2017-12-10T00:04:06.514Z,49.02
2017-12-10T00:05:06.510Z,49.02
2017-12-10T00:06:06.496Z,49.12
2017-12-10T00:07:06.489Z,49.15
2017-12-10T00:08:06.481Z,48.93
2017-12-10T00:09:06.473Z,49.05
2017-12-10T00:10:06.469Z,49.12
2017-12-10T00:11:06.457Z,49.53
2017-12-10T00:12:06.450Z,48.93
2017-12-10T00:13:06.443Z,49.02
2017-12-10T00:14:06.435Z,48.83
2017-12-10T00:15:06.426Z,48.93
2017-12-10T00:16:06.419Z,48.74
2017-12-10T00:17:06.411Z,48.95
2017-12-10T00:18:06.404Z,48.93
2017-12-10T00:19:06.396Z,48.83
2017-12-10T00:20:06.387Z,48.74
2017-12-10T00:21:06.379Z,48.93
2017-12-10T00:22:06.371Z,48.93
2017-12-10T00:23:06.365Z,49.05
2017-12-10T00:24:06.354Z,49.02
2017-12-10T00:25:06.350Z,48.86
2017-12-10T00:26:06.340Z,48.86
2017-12-10T00:27:06.334Z,48.93
2017-12-10T00:28:06.325Z,49.02
2017-12-10T00:29:06.320Z,48.93
2017-12-10T00:30:06.310Z,48.95
2017-12-10T00:31:06.301Z,49.02
2017-12-10T00:32:06.294Z,49.02
2017-12-10T00:33:06.286Z,48.95
2017-12-10T00:34:06.278Z,48.93
2017-12-10T00:35:06.271Z,49.05
2017-12-10T00:36:06.266Z,49.02
2017-12-10T00:37:06.255Z,48.95
2017-12-10T00:38:06.248Z,49.02
2017-12-10T00:39:06.239Z,48.95
2017-12-10T00:40:06.231Z,48.93
2017-12-10T00:41:06.223Z,49.05
2017-12-10T00:42:06.217Z,48.93
2017-12-10T00:43:06.208Z,48.93
2017-12-10T00:44:06.203Z,49.02
2017-12-10T00:45:06.194Z,48.95
2017-12-10T00:46:06.186Z,48.86
2017-12-10T00:47:06.185Z,49.02
2017-12-10T00:48:06.171Z,48.83
2017-12-10T00:49:06.160Z,48.83
2017-12-10T00:50:06.154Z,48.95
2017-12-10T00:51:06.146Z,48.83
2017-12-10T00:52:06.137Z,49.02
2017-12-10T00:53:06.129Z,48.93
2017-12-10T00:54:06.122Z,48.93
2017-12-10T00:55:06.114Z,48.83
2017-12-10T00:56:06.134Z,48.93
2017-12-10T00:57:06.114Z,49.02
2017-12-10T00:58:06.105Z,48.83
2017-12-10T00:59:06.106Z,48.93
2017-12-10T01:00:06.080Z,48.93
2017-12-10T01:01:06.068Z,48.93
2017-12-10T01:02:06.061Z,48.93
2017-12-10T01:03:06.058Z,49.02
2017-12-10T01:04:06.044Z,49.12
2017-12-10T01:05:06.036Z,48.83
2017-12-10T01:06:06.030Z,49.12
2017-12-10T01:07:06.019Z,49.12
2017-12-10T01:08:06.014Z,49.12
2017-12-10T01:09:06.005Z,49.02
2017-12-10T01:10:05.998Z,49.02
2017-12-10T01:11:05.988Z,49.12
2017-12-10T01:12:05.981Z,48.93
2017-12-10T01:13:05.974Z,48.86
2017-12-10T01:14:05.967Z,49.02
2017-12-10T01:15:05.957Z,49.05
2017-12-10T01:16:05.951Z,48.93
2017-12-10T01:17:05.943Z,49.02
2017-12-10T01:18:05.935Z,49.02
2017-12-10T01:19:05.927Z,48.93
2017-12-10T01:20:05.919Z,48.74
2017-12-10T01:21:05.910Z,48.93
2017-12-10T01:22:05.904Z,48.95
2017-12-10T01:23:05.895Z,48.83
2017-12-10T01:24:05.886Z,48.83
2017-12-10T01:25:05.879Z,48.93
2017-12-10T01:26:05.873Z,48.93
2017-12-10T01:27:05.863Z,49.02
2017-12-10T01:28:05.857Z,49.02
2017-12-10T01:29:05.849Z,48.83
2017-12-10T01:30:05.842Z,49.02
2017-12-10T01:31:05.834Z,49.02
2017-12-10T01:32:05.825Z,48.83
2017-12-10T01:33:05.817Z,49.12
2017-12-10T01:34:05.810Z,49.02
2017-12-10T01:35:05.801Z,49.02
2017-12-10T01:36:05.794Z,49.02
2017-12-10T01:37:05.787Z,49.02
2017-12-10T01:38:05.782Z,49.02
2017-12-10T01:39:05.771Z,49.02
2017-12-10T01:40:05.761Z,49.12
2017-12-10T01:41:05.761Z,49.32
2017-12-10T01:42:05.748Z,49.12
2017-12-10T01:43:05.739Z,48.93
2017-12-10T01:44:05.731Z,49.12
2017-12-10T01:45:05.723Z,49.12
2017-12-10T01:46:05.715Z,49.22
2017-12-10T01:47:05.705Z,48.93
2017-12-10T01:48:05.699Z,49.22
2017-12-10T01:49:05.692Z,49.12
2017-12-10T01:50:05.685Z,49.12
2017-12-10T01:51:05.677Z,49.12
2017-12-10T01:52:05.667Z,48.93
2017-12-10T01:53:05.661Z,49.12
2017-12-10T01:54:05.652Z,49.12
2017-12-10T01:55:05.647Z,49.22
2017-12-10T01:56:05.637Z,49.12
2017-12-10T01:57:05.630Z,49.12
2017-12-10T01:58:05.622Z,49.02
2017-12-10T01:59:05.612Z,49.22
2017-12-10T02:00:05.605Z,49.02
2017-12-10T02:01:05.597Z,49.22
2017-12-10T02:02:05.596Z,49.22
2017-12-10T02:03:05.584Z,49.22
2017-12-10T02:04:05.574Z,49.22
2017-12-10T02:05:05.566Z,49.22
2017-12-10T02:06:05.558Z,48.83
2017-12-10T02:07:05.551Z,48.83
2017-12-10T02:08:05.543Z,48.64
2017-12-10T02:09:05.535Z,48.64
2017-12-10T02:10:05.528Z,48.83
2017-12-10T02:11:05.518Z,48.74
2017-12-10T02:12:05.510Z,48.83
2017-12-10T02:13:05.504Z,48.64
2017-12-10T02:14:05.497Z,48.64
2017-12-10T02:15:05.487Z,48.83
2017-12-10T02:16:05.480Z,48.64
2017-12-10T02:17:05.475Z,48.44
2017-12-10T02:18:05.466Z,48.74
2017-12-10T02:19:05.455Z,48.83
2017-12-10T02:20:05.448Z,48.54
2017-12-10T02:21:05.441Z,48.64
2017-12-10T02:22:05.433Z,48.93
2017-12-10T02:23:05.425Z,48.74
2017-12-10T02:24:05.419Z,48.44
2017-12-10T02:25:05.404Z,48.74
2017-12-10T02:26:05.400Z,48.64
2017-12-10T02:27:05.394Z,48.64
2017-12-10T02:28:05.386Z,48.74
2017-12-10T02:29:05.378Z,48.44
2017-12-10T02:30:05.371Z,48.74
2017-12-10T02:31:05.362Z,48.35
2017-12-10T02:32:05.355Z,48.44
2017-12-10T02:33:05.347Z,48.64
2017-12-10T02:34:05.340Z,48.44
2017-12-10T02:35:05.330Z,48.64
2017-12-10T02:36:05.329Z,48.64
2017-12-10T02:37:05.314Z,48.74
2017-12-10T02:38:05.310Z,48.64
2017-12-10T02:39:05.300Z,48.54
2017-12-10T02:40:05.293Z,48.54
2017-12-10T02:41:05.285Z,48.83
2017-12-10T02:42:05.276Z,48.54
2017-12-10T02:43:05.268Z,48.64
2017-12-10T02:44:05.261Z,48.83
2017-12-10T02:45:05.255Z,48.83
2017-12-10T02:46:05.247Z,48.74
2017-12-10T02:47:05.236Z,48.44
2017-12-10T02:48:05.228Z,48.44
2017-12-10T02:49:05.220Z,48.35
2017-12-10T02:50:05.213Z,48.44
2017-12-10T02:51:05.206Z,48.54
2017-12-10T02:52:05.199Z,48.35
2017-12-10T02:53:05.193Z,48.44
2017-12-10T02:54:05.183Z,48.25
2017-12-10T02:55:05.173Z,48.35
2017-12-10T02:56:05.166Z,48.35
2017-12-10T02:57:05.158Z,48.25
2017-12-10T02:58:05.151Z,48.35
2017-12-10T02:59:05.142Z,48.44
2017-12-10T03:00:05.136Z,48.35
2017-12-10T03:01:05.126Z,48.35
2017-12-10T03:02:05.117Z,48.35
2017-12-10T03:03:05.111Z,48.35
2017-12-10T03:04:05.104Z,48.35
2017-12-10T03:05:05.094Z,48.44
2017-12-10T03:06:05.087Z,48.54
2017-12-10T03:07:05.078Z,48.44
2017-12-10T03:08:05.072Z,48.54
2017-12-10T03:09:05.064Z,48.44
2017-12-10T03:10:05.054Z,48.44
2017-12-10T03:11:05.048Z,48.35
2017-12-10T03:12:05.038Z,48.44
2017-12-10T03:13:05.032Z,48.35
2017-12-10T03:14:05.024Z,48.35
2017-12-10T03:15:05.017Z,48.25
2017-12-10T03:16:05.005Z,48.35
2017-12-10T03:17:04.999Z,48.35
2017-12-10T03:18:04.992Z,48.35
2017-12-10T03:19:04.983Z,48.25
2017-12-10T03:20:04.976Z,48.44
2017-12-10T03:21:04.967Z,48.35
2017-12-10T03:22:04.968Z,48.35
2017-12-10T03:23:04.952Z,48.35
2017-12-10T03:24:04.944Z,48.25
2017-12-10T03:25:04.935Z,48.16
2017-12-10T03:26:04.930Z,48.25
2017-12-10T03:27:04.946Z,48.35
2017-12-10T03:28:04.911Z,48.35
2017-12-10T03:29:04.912Z,48.35
2017-12-10T03:30:04.897Z,48.25
2017-12-10T03:31:04.889Z,48.44
2017-12-10T03:32:04.880Z,48.35
2017-12-10T03:33:04.873Z,48.35
2017-12-10T03:34:04.873Z,48.25
2017-12-10T03:35:04.857Z,48.44
2017-12-10T03:36:04.850Z,48.35
2017-12-10T03:37:04.843Z,48.35
2017-12-10T03:38:04.832Z,48.25
2017-12-10T03:39:04.824Z,48.06
2017-12-10T03:40:04.817Z,48.25
2017-12-10T03:41:04.809Z,48.25
2017-12-10T03:42:04.802Z,48.25
2017-12-10T03:43:04.792Z,48.25
2017-12-10T03:44:04.786Z,48.35
2017-12-10T03:45:04.779Z,48.35
2017-12-10T03:46:04.770Z,48.25
2017-12-10T03:47:04.763Z,48.25
2017-12-10T03:48:04.754Z,48.16
2017-12-10T03:49:04.746Z,48.35
2017-12-10T03:50:04.739Z,48.16
2017-12-10T03:51:04.729Z,48.54
2017-12-10T03:52:04.722Z,48.35
2017-12-10T03:53:04.715Z,48.16
2017-12-10T03:54:04.706Z,48.44
2017-12-10T03:55:04.698Z,48.54
2017-12-10T03:56:04.690Z,48.06
2017-12-10T03:57:04.682Z,48.16
2017-12-10T03:58:04.674Z,48.35
2017-12-10T03:59:04.661Z,48.35
2017-12-10T04:00:04.659Z,48.35
2017-12-10T04:01:04.651Z,48.25
2017-12-10T04:02:04.644Z,48.44
2017-12-10T04:03:04.633Z,48.44
2017-12-10T04:04:04.626Z,48.54
2017-12-10T04:05:04.619Z,48.25
2017-12-10T04:06:04.616Z,47.77
2017-12-10T04:07:04.603Z,48.08
2017-12-10T04:08:04.601Z,48.06
2017-12-10T04:09:04.611Z,48.18
2017-12-10T04:10:04.582Z,47.80
2017-12-10T04:11:04.571Z,47.99
2017-12-10T04:12:04.563Z,47.80
2017-12-10T04:13:04.583Z,47.60
2017-12-10T04:14:04.551Z,47.60
2017-12-10T04:15:04.540Z,47.51
2017-12-10T04:16:04.533Z,47.51
2017-12-10T04:17:04.526Z,47.51
2017-12-10T04:18:04.517Z,47.31
2017-12-10T04:19:04.511Z,47.60
2017-12-10T04:20:04.503Z,47.80
2017-12-10T04:21:04.495Z,47.80
2017-12-10T04:22:04.487Z,47.70
2017-12-10T04:23:04.478Z,47.12
2017-12-10T04:24:04.472Z,47.41
2017-12-10T04:25:04.464Z,47.41
2017-12-10T04:26:04.457Z,47.22
2017-12-10T04:27:04.447Z,47.51
2017-12-10T04:28:04.484Z,47.51
2017-12-10T04:29:04.434Z,47.31
2017-12-10T04:30:04.426Z,47.80
2017-12-10T04:31:04.418Z,47.89
2017-12-10T04:32:04.413Z,47.89
2017-12-10T04:33:04.404Z,47.80
2017-12-10T04:34:04.394Z,47.89
2017-12-10T04:35:04.387Z,47.89
2017-12-10T04:36:04.379Z,47.80
2017-12-10T04:37:04.372Z,47.89
2017-12-10T04:38:04.364Z,47.89
2017-12-10T04:39:04.356Z,47.70
2017-12-10T04:40:04.350Z,47.80
2017-12-10T04:41:04.342Z,47.70
2017-12-10T04:42:04.333Z,47.70
2017-12-10T04:43:04.326Z,47.60
2017-12-10T04:44:04.319Z,47.41
2017-12-10T04:45:04.311Z,47.41
2017-12-10T04:46:04.304Z,47.60
2017-12-10T04:47:04.297Z,47.70
2017-12-10T04:48:04.290Z,47.51
2017-12-10T04:49:04.281Z,47.51
2017-12-10T04:50:04.272Z,47.41
2017-12-10T04:51:04.264Z,47.51
2017-12-10T04:52:04.259Z,47.60
2017-12-10T04:53:04.251Z,47.51
2017-12-10T04:54:04.242Z,47.60
2017-12-10T04:55:04.232Z,47.70
2017-12-10T04:56:04.229Z,47.51
2017-12-10T04:57:04.220Z,47.51
2017-12-10T04:58:04.211Z,47.51
2017-12-10T04:59:04.204Z,47.70
2017-12-10T05:00:04.196Z,47.51
2017-12-10T05:01:04.188Z,47.60
2017-12-10T05:02:04.184Z,47.70
2017-12-10T05:03:04.172Z,47.51
2017-12-10T05:04:04.165Z,47.51
2017-12-10T05:05:04.157Z,47.51
2017-12-10T05:06:04.150Z,47.51
2017-12-10T05:07:04.141Z,47.51
2017-12-10T05:08:04.134Z,47.70
2017-12-10T05:09:04.126Z,47.80
2017-12-10T05:10:04.124Z,47.89
2017-12-10T05:11:04.112Z,47.70
2017-12-10T05:12:04.102Z,47.80
2017-12-10T05:13:04.106Z,47.70
2017-12-10T05:14:04.090Z,47.80
2017-12-10T05:15:04.080Z,47.80
2017-12-10T05:16:04.073Z,47.89
2017-12-10T05:17:04.066Z,47.70
2017-12-10T05:18:04.058Z,47.80
2017-12-10T05:19:04.050Z,47.80
2017-12-10T05:20:04.041Z,47.80
2017-12-10T05:21:04.036Z,47.89
2017-12-10T05:22:04.027Z,47.80
2017-12-10T05:23:04.018Z,47.70
2017-12-10T05:24:04.035Z,47.70
2017-12-10T05:25:04.008Z,47.70
2017-12-10T05:26:03.996Z,47.80
2017-12-10T05:27:03.988Z,47.80
2017-12-10T05:28:03.980Z,47.89
2017-12-10T05:29:03.973Z,47.80
2017-12-10T05:30:03.965Z,47.12
2017-12-10T05:31:03.957Z,47.80
2017-12-10T05:32:03.950Z,47.80
2017-12-10T05:33:03.942Z,47.22
2017-12-10T05:34:03.934Z,47.80
2017-12-10T05:35:03.929Z,47.70
2017-12-10T05:36:03.922Z,47.12
2017-12-10T05:37:03.913Z,47.22
2017-12-10T05:38:03.902Z,47.80
2017-12-10T05:39:03.897Z,47.89
2017-12-10T05:40:03.891Z,47.80
2017-12-10T05:41:03.881Z,47.70
2017-12-10T05:42:03.878Z,47.80
2017-12-10T05:43:03.867Z,47.51
2017-12-10T05:44:03.858Z,47.41
2017-12-10T05:45:03.848Z,47.70
2017-12-10T05:46:03.842Z,47.22
2017-12-10T05:47:03.834Z,47.41
2017-12-10T05:48:03.828Z,47.31
2017-12-10T05:49:03.819Z,47.12
2017-12-10T05:50:03.812Z,47.03
2017-12-10T05:51:03.805Z,47.41
2017-12-10T05:52:03.797Z,46.93
2017-12-10T05:53:03.791Z,47.31
2017-12-10T05:54:03.782Z,47.31
2017-12-10T05:55:03.774Z,47.31
2017-12-10T05:56:03.766Z,47.41
2017-12-10T05:57:03.757Z,47.31
2017-12-10T05:58:03.749Z,47.22
2017-12-10T05:59:03.741Z,47.41
2017-12-10T06:00:03.736Z,47.41
2017-12-10T06:01:03.727Z,47.31
2017-12-10T06:02:03.719Z,47.31
2017-12-10T06:03:03.722Z,47.22
2017-12-10T06:04:03.709Z,47.12
2017-12-10T06:05:03.697Z,47.22
2017-12-10T06:06:03.691Z,47.41
2017-12-10T06:07:03.688Z,47.41
2017-12-10T06:08:03.672Z,47.41
2017-12-10T06:09:03.665Z,47.22
2017-12-10T06:10:03.658Z,47.41
2017-12-10T06:11:03.657Z,47.41
2017-12-10T06:12:03.642Z,47.31
2017-12-10T06:13:03.634Z,47.22
2017-12-10T06:14:03.627Z,47.51
2017-12-10T06:15:03.620Z,47.22
2017-12-10T06:16:03.611Z,47.41
2017-12-10T06:17:03.602Z,47.51
2017-12-10T06:18:03.595Z,47.31
2017-12-10T06:19:03.588Z,47.12
2017-12-10T06:20:03.584Z,47.31
2017-12-10T06:21:03.618Z,47.41
2017-12-10T06:22:03.565Z,47.31
2017-12-10T06:23:03.558Z,47.31
2017-12-10T06:24:03.550Z,47.22
2017-12-10T06:25:03.544Z,47.22
2017-12-10T06:26:03.535Z,47.22
2017-12-10T06:27:03.527Z,47.12
2017-12-10T06:28:03.519Z,47.22
2017-12-10T06:29:03.513Z,47.12
2017-12-10T06:30:03.504Z,47.12
2017-12-10T06:31:03.497Z,47.41
2017-12-10T06:32:03.488Z,47.31
2017-12-10T06:33:03.481Z,47.41
2017-12-10T06:34:03.479Z,47.22
2017-12-10T06:35:03.465Z,47.41
2017-12-10T06:36:03.456Z,47.22
2017-12-10T06:37:03.451Z,47.41
2017-12-10T06:38:03.444Z,47.22
2017-12-10T06:39:03.433Z,47.41
2017-12-10T06:40:03.427Z,47.41
2017-12-10T06:41:03.421Z,47.41
2017-12-10T06:42:03.412Z,47.12
2017-12-10T06:43:03.402Z,47.41
2017-12-10T06:44:03.397Z,47.31
2017-12-10T06:45:03.389Z,47.41
2017-12-10T06:46:03.389Z,47.31
2017-12-10T06:47:03.372Z,47.31
2017-12-10T06:48:03.368Z,47.31
2017-12-10T06:49:03.360Z,46.93
2017-12-10T06:50:03.350Z,47.22
2017-12-10T06:51:03.340Z,46.73
2017-12-10T06:52:03.336Z,46.93
2017-12-10T06:53:03.329Z,47.03
2017-12-10T06:54:03.319Z,46.83
2017-12-10T06:55:03.311Z,47.12
2017-12-10T06:56:03.305Z,47.51
2017-12-10T06:57:03.296Z,46.73
2017-12-10T06:58:03.288Z,47.31
2017-12-10T06:59:03.281Z,47.22
2017-12-10T07:00:03.279Z,46.83
2017-12-10T07:01:03.265Z,46.83
2017-12-10T07:02:03.260Z,47.03
2017-12-10T07:03:03.250Z,46.83
2017-12-10T07:04:03.241Z,47.03
2017-12-10T07:05:03.238Z,46.93
2017-12-10T07:06:03.227Z,46.93
2017-12-10T07:07:03.219Z,46.93
2017-12-10T07:08:03.210Z,47.03
2017-12-10T07:09:03.205Z,47.03
2017-12-10T07:10:03.200Z,47.03
2017-12-10T07:11:03.188Z,46.93
2017-12-10T07:12:03.181Z,47.03
2017-12-10T07:13:03.173Z,47.03
2017-12-10T07:14:03.167Z,47.12
2017-12-10T07:15:03.159Z,47.03
2017-12-10T07:16:03.149Z,47.12
2017-12-10T07:17:03.143Z,47.03
2017-12-10T07:18:03.169Z,47.03
2017-12-10T07:19:03.127Z,47.03
2017-12-10T07:20:03.119Z,47.03
2017-12-10T07:21:03.129Z,47.12
2017-12-10T07:22:03.123Z,47.12
2017-12-10T07:23:03.104Z,46.64
2017-12-10T07:24:03.093Z,47.03
2017-12-10T07:25:03.081Z,47.12
2017-12-10T07:26:03.074Z,47.03
2017-12-10T07:27:03.064Z,46.93
2017-12-10T07:28:03.057Z,46.93
2017-12-10T07:29:03.051Z,46.93
2017-12-10T07:30:03.046Z,46.64
2017-12-10T07:31:03.035Z,47.03
2017-12-10T07:32:03.026Z,46.93
2017-12-10T07:33:03.020Z,46.93
2017-12-10T07:34:03.012Z,46.64
2017-12-10T07:35:03.002Z,46.64
2017-12-10T07:36:02.997Z,46.55
2017-12-10T07:37:02.989Z,46.93
2017-12-10T07:38:02.983Z,47.03
2017-12-10T07:39:02.973Z,46.64
2017-12-10T07:40:02.966Z,46.55
2017-12-10T07:41:02.958Z,46.64
2017-12-10T07:42:02.951Z,46.83
2017-12-10T07:43:02.944Z,46.35
2017-12-10T07:44:02.936Z,46.45
2017-12-10T07:45:02.929Z,46.25
2017-12-10T07:46:02.915Z,46.64
2017-12-10T07:47:02.912Z,46.35
2017-12-10T07:48:02.908Z,46.93
2017-12-10T07:49:02.898Z,46.45
2017-12-10T07:50:02.890Z,46.55
2017-12-10T07:51:02.881Z,46.64
2017-12-10T07:52:02.875Z,46.45
2017-12-10T07:53:02.867Z,46.64
2017-12-10T07:54:02.859Z,46.64
2017-12-10T07:55:02.851Z,46.55
2017-12-10T07:56:02.844Z,46.55
2017-12-10T07:57:02.837Z,46.73
2017-12-10T07:58:02.829Z,46.64
2017-12-10T07:59:02.821Z,46.64
2017-12-10T08:00:02.814Z,46.35
2017-12-10T08:01:02.807Z,46.64
2017-12-10T08:02:02.796Z,46.64
2017-12-10T08:03:02.790Z,46.64
2017-12-10T08:04:02.782Z,46.64
2017-12-10T08:05:02.774Z,46.64
2017-12-10T08:06:02.766Z,46.55
2017-12-10T08:07:02.759Z,46.64
2017-12-10T08:08:02.752Z,46.73
2017-12-10T08:09:02.746Z,46.64
2017-12-10T08:10:02.741Z,46.64
2017-12-10T08:11:02.736Z,46.64
2017-12-10T08:12:02.721Z,46.73
2017-12-10T08:13:02.714Z,46.73
2017-12-10T08:14:02.710Z,46.64
2017-12-10T08:15:02.698Z,46.64
2017-12-10T08:16:02.694Z,46.55
2017-12-10T08:17:02.684Z,46.55
2017-12-10T08:18:02.676Z,46.45
2017-12-10T08:19:02.667Z,46.35
2017-12-10T08:20:02.661Z,46.45
2017-12-10T08:21:02.656Z,46.64
2017-12-10T08:22:02.648Z,46.55
2017-12-10T08:23:02.637Z,46.73
2017-12-10T08:24:02.633Z,46.73
2017-12-10T08:25:02.623Z,46.83
2017-12-10T08:26:02.615Z,46.83
2017-12-10T08:27:02.607Z,46.93
2017-12-10T08:28:02.602Z,46.93
2017-12-10T08:29:02.592Z,46.83
2017-12-10T08:30:02.587Z,46.83
2017-12-10T08:31:02.579Z,46.73
2017-12-10T08:32:02.571Z,46.64
2017-12-10T08:33:02.566Z,46.64
2017-12-10T08:34:02.554Z,46.64
2017-12-10T08:35:02.548Z,46.55
2017-12-10T08:36:02.539Z,46.35
2017-12-10T08:37:02.533Z,46.35
2017-12-10T08:38:02.524Z,46.25
2017-12-10T08:39:02.517Z,46.45
2017-12-10T08:40:02.563Z,46.35
2017-12-10T08:41:02.502Z,46.35
2017-12-10T08:42:02.516Z,46.64
2017-12-10T08:43:02.487Z,46.35
2017-12-10T08:44:02.478Z,46.25
2017-12-10T08:45:02.478Z,46.64
2017-12-10T08:46:02.465Z,46.35
2017-12-10T08:47:02.456Z,46.45
2017-12-10T08:48:02.447Z,46.25
2017-12-10T08:49:02.442Z,46.35
2017-12-10T08:50:02.434Z,46.25
2017-12-10T08:51:02.426Z,46.15
2017-12-10T08:52:02.416Z,46.25
2017-12-10T08:53:02.411Z,46.64
2017-12-10T08:54:02.403Z,46.45
2017-12-10T08:55:02.399Z,46.35
2017-12-10T08:56:02.388Z,46.45
2017-12-10T08:57:02.381Z,46.45
2017-12-10T08:58:02.373Z,46.35
2017-12-10T08:59:02.370Z,46.35
2017-12-10T09:00:02.359Z,46.35
2017-12-10T09:01:02.350Z,46.25
2017-12-10T09:02:02.344Z,46.45
2017-12-10T09:03:02.333Z,46.64
2017-12-10T09:04:02.327Z,46.64
2017-12-10T09:05:02.320Z,46.83
2017-12-10T09:06:02.313Z,46.93
2017-12-10T09:07:02.306Z,46.93
2017-12-10T09:08:02.294Z,46.83
2017-12-10T09:09:02.289Z,46.93
2017-12-10T09:10:02.282Z,46.93
2017-12-10T09:11:02.274Z,46.83
2017-12-10T09:12:02.268Z,46.83
2017-12-10T09:13:02.258Z,46.83
2017-12-10T09:14:02.251Z,46.64
2017-12-10T09:15:02.243Z,46.64
2017-12-10T09:16:02.235Z,46.45
2017-12-10T09:17:02.228Z,46.73
2017-12-10T09:18:02.223Z,46.55
2017-12-10T09:19:02.219Z,46.55
2017-12-10T09:20:02.203Z,46.35
2017-12-10T09:21:02.199Z,46.45
2017-12-10T09:22:02.189Z,46.25
2017-12-10T09:23:02.184Z,46.45
2017-12-10T09:24:02.175Z,46.25
2017-12-10T09:25:02.166Z,46.25
2017-12-10T09:26:02.185Z,46.25
2017-12-10T09:27:02.182Z,46.15
2017-12-10T09:28:02.143Z,46.06
2017-12-10T09:29:02.138Z,46.35
2017-12-10T09:30:02.129Z,46.06
2017-12-10T09:31:02.120Z,46.15
2017-12-10T09:32:02.112Z,46.25
2017-12-10T09:33:02.107Z,46.45
2017-12-10T09:34:02.118Z,46.45
2017-12-10T09:35:02.092Z,46.25
2017-12-10T09:36:02.097Z,46.06
2017-12-10T09:37:02.075Z,46.55
2017-12-10T09:38:02.069Z,46.45
2017-12-10T09:39:02.061Z,46.55
2017-12-10T09:40:02.053Z,46.55
2017-12-10T09:41:02.046Z,46.73
2017-12-10T09:42:02.039Z,46.45
2017-12-10T09:43:02.035Z,46.83
2017-12-10T09:44:02.022Z,46.64
2017-12-10T09:45:02.013Z,46.64
2017-12-10T09:46:02.006Z,46.55
2017-12-10T09:47:01.999Z,46.64
2017-12-10T09:48:01.991Z,46.55
2017-12-10T09:49:01.983Z,46.55
2017-12-10T09:50:01.977Z,46.55
2017-12-10T09:51:01.970Z,46.45
2017-12-10T09:52:01.962Z,46.45
2017-12-10T09:53:01.954Z,46.06
2017-12-10T09:54:01.948Z,46.25
2017-12-10T09:55:01.937Z,46.35
2017-12-10T09:56:01.929Z,46.45
2017-12-10T09:57:01.923Z,46.06
2017-12-10T09:58:01.916Z,46.35
2017-12-10T09:59:01.907Z,46.25
2017-12-10T10:00:01.899Z,46.35
2017-12-10T10:01:01.893Z,46.35
2017-12-10T10:02:01.886Z,46.06
2017-12-10T10:03:01.878Z,46.06
2017-12-10T10:04:01.868Z,46.45
2017-12-10T10:05:01.863Z,46.15
2017-12-10T10:06:01.855Z,46.25
2017-12-10T10:07:01.846Z,46.15
2017-12-10T10:08:01.840Z,46.35
2017-12-10T10:09:01.834Z,46.55
2017-12-10T10:10:01.826Z,46.55
2017-12-10T10:11:01.816Z,46.25
2017-12-10T10:12:01.810Z,46.45
2017-12-10T10:13:01.802Z,46.55
2017-12-10T10:14:01.796Z,46.25
2017-12-10T10:15:01.787Z,46.45
2017-12-10T10:16:01.778Z,46.35
2017-12-10T10:17:01.771Z,46.45
2017-12-10T10:18:01.765Z,46.64
2017-12-10T10:19:01.755Z,46.45
2017-12-10T10:20:01.749Z,46.45
2017-12-10T10:21:01.740Z,46.06
2017-12-10T10:22:01.735Z,46.55
2017-12-10T10:23:01.724Z,46.45
2017-12-10T10:24:01.717Z,46.45
2017-12-10T10:25:01.709Z,46.45
2017-12-10T10:26:01.775Z,46.25
2017-12-10T10:27:01.720Z,46.45
2017-12-10T10:28:01.688Z,45.97
2017-12-10T10:29:01.680Z,46.06
2017-12-10T10:30:01.676Z,46.15
2017-12-10T10:31:01.665Z,45.97
2017-12-10T10:32:01.657Z,46.15
2017-12-10T10:33:01.650Z,45.97
2017-12-10T10:34:01.641Z,46.06
2017-12-10T10:35:01.633Z,45.97
2017-12-10T10:36:01.625Z,45.87
2017-12-10T10:37:01.619Z,45.87
2017-12-10T10:38:01.617Z,46.06
2017-12-10T10:39:01.603Z,46.06
2017-12-10T10:40:01.595Z,46.06
2017-12-10T10:41:01.588Z,46.06
2017-12-10T10:42:01.581Z,46.06
2017-12-10T10:43:01.572Z,45.87
2017-12-10T10:44:01.565Z,46.06
2017-12-10T10:45:01.558Z,45.97
2017-12-10T10:46:01.549Z,45.87
2017-12-10T10:47:01.541Z,46.06
2017-12-10T10:48:01.530Z,45.97
2017-12-10T10:49:01.528Z,45.87
2017-12-10T10:50:01.520Z,45.97
2017-12-10T10:51:01.513Z,46.06
2017-12-10T10:52:01.505Z,45.97
2017-12-10T10:53:01.497Z,46.06
2017-12-10T10:54:01.489Z,46.15
2017-12-10T10:55:01.481Z,45.97
2017-12-10T10:56:01.472Z,45.97
2017-12-10T10:57:01.466Z,46.15
2017-12-10T10:58:01.459Z,45.97
2017-12-10T10:59:01.452Z,46.15
2017-12-10T11:00:01.443Z,46.06
2017-12-10T11:01:01.435Z,46.15
2017-12-10T11:02:01.429Z,45.39
2017-12-10T11:03:01.419Z,45.68
2017-12-10T11:04:01.413Z,45.87
2017-12-10T11:05:01.405Z,45.97
2017-12-10T11:06:01.402Z,45.68
2017-12-10T11:07:01.390Z,45.87
2017-12-10T11:08:01.382Z,45.68
2017-12-10T11:09:01.375Z,45.68
2017-12-10T11:10:01.396Z,45.77
2017-12-10T11:11:01.361Z,45.77
2017-12-10T11:12:01.355Z,45.68
2017-12-10T11:13:01.343Z,45.68
2017-12-10T11:14:01.339Z,45.58
2017-12-10T11:15:01.328Z,45.58
2017-12-10T11:16:01.322Z,45.58
2017-12-10T11:17:01.357Z,45.58
2017-12-10T11:18:01.307Z,45.77
2017-12-10T11:19:01.299Z,45.58
2017-12-10T11:20:01.292Z,45.68
2017-12-10T11:21:01.285Z,45.68
2017-12-10T11:22:01.277Z,45.68
2017-12-10T11:23:01.268Z,45.68
2017-12-10T11:24:01.263Z,45.58
2017-12-10T11:25:01.254Z,45.68
2017-12-10T11:26:01.266Z,45.68
2017-12-10T11:27:01.238Z,45.68
2017-12-10T11:28:01.230Z,45.68
2017-12-10T11:29:01.224Z,45.77
2017-12-10T11:30:01.217Z,45.77
2017-12-10T11:31:01.207Z,45.68
2017-12-10T11:32:01.200Z,45.77
2017-12-10T11:33:01.193Z,45.58
2017-12-10T11:34:01.186Z,45.68
2017-12-10T11:35:01.176Z,45.68
2017-12-10T11:36:01.170Z,45.68
2017-12-10T11:37:01.162Z,45.68
2017-12-10T11:38:01.156Z,45.77
2017-12-10T11:39:01.147Z,46.06
2017-12-10T11:40:01.140Z,45.77
2017-12-10T11:41:01.132Z,45.58
2017-12-10T11:42:01.128Z,45.77
2017-12-10T11:43:01.117Z,45.77
2017-12-10T11:44:01.110Z,45.58
2017-12-10T11:45:01.102Z,45.77
2017-12-10T11:46:01.093Z,45.68
2017-12-10T11:47:01.090Z,45.77
2017-12-10T11:48:01.078Z,45.77
2017-12-10T11:49:01.074Z,45.77
2017-12-10T11:50:01.065Z,45.58
2017-12-10T11:51:01.056Z,45.58
2017-12-10T11:52:01.047Z,45.58
2017-12-10T11:53:01.041Z,45.68
2017-12-10T11:54:01.034Z,45.77
2017-12-10T11:55:01.024Z,45.68
2017-12-10T11:56:01.018Z,45.58
2017-12-10T11:57:01.013Z,45.68
2017-12-10T11:58:01.003Z,45.58
2017-12-10T11:59:00.997Z,45.77
2017-12-10T12:00:00.990Z,45.68
2017-12-10T12:01:00.981Z,45.68
2017-12-10T12:02:00.972Z,45.77
2017-12-10T12:03:00.964Z,45.68
2017-12-10T12:04:00.957Z,45.77
2017-12-10T12:05:00.950Z,45.77
2017-12-10T12:06:00.943Z,45.77
2017-12-10T12:07:00.933Z,45.77
2017-12-10T12:08:00.927Z,45.68
2017-12-10T12:09:00.920Z,45.68
2017-12-10T12:10:00.913Z,45.68
2017-12-10T12:11:00.903Z,45.68
2017-12-10T12:12:00.898Z,45.58
2017-12-10T12:13:00.889Z,45.97
2017-12-10T12:14:00.880Z,45.97
2017-12-10T12:15:00.873Z,45.97
2017-12-10T12:16:00.867Z,46.15
2017-12-10T12:17:00.858Z,45.77
2017-12-10T12:18:00.852Z,45.97
2017-12-10T12:19:00.842Z,46.06
2017-12-10T12:20:00.836Z,45.77
2017-12-10T12:21:00.828Z,46.15
2017-12-10T12:22:00.821Z,46.06
2017-12-10T12:23:00.812Z,45.87
2017-12-10T12:24:00.806Z,45.87
2017-12-10T12:25:00.796Z,45.87
2017-12-10T12:26:00.790Z,45.97
2017-12-10T12:27:00.783Z,46.06
2017-12-10T12:28:00.774Z,45.87
2017-12-10T12:29:00.770Z,45.97
2017-12-10T12:30:00.761Z,46.06
2017-12-10T12:31:00.752Z,45.87
2017-12-10T12:32:00.745Z,45.87
2017-12-10T12:33:00.738Z,45.87
2017-12-10T12:34:00.730Z,46.06
2017-12-10T12:35:00.724Z,45.87
2017-12-10T12:36:00.716Z,45.77
2017-12-10T12:37:00.706Z,46.06
2017-12-10T12:38:00.700Z,46.06
2017-12-10T12:39:00.692Z,45.87
2017-12-10T12:40:00.685Z,46.06
2017-12-10T12:41:00.676Z,45.87
2017-12-10T12:42:00.670Z,46.06
2017-12-10T12:43:00.659Z,45.97
2017-12-10T12:44:00.654Z,45.77
2017-12-10T12:45:00.646Z,46.06
2017-12-10T12:46:00.639Z,45.87
2017-12-10T12:47:00.632Z,45.87
2017-12-10T12:48:00.625Z,45.97
2017-12-10T12:49:00.616Z,45.77
2017-12-10T12:50:00.609Z,46.06
2017-12-10T12:51:00.599Z,46.06
2017-12-10T12:52:00.594Z,45.77